createdAt,value
2018-07-03T21:20:32.387Z,27.886963
2018-07-03T21:20:50.583Z,27.984619
2018-07-03T21:21:09.220Z,28.094482
2018-07-03T21:21:27.384Z,28.198242
2018-07-03T21:21:45.493Z,28.198242
2018-07-03T21:22:03.965Z,28.295898
2018-07-03T21:22:22.058Z,28.198242
2018-07-03T21:22:40.411Z,28.393555
2018-07-03T21:23:14.658Z,28.588867
2018-07-03T21:23:31.778Z,28.491211
2018-07-03T21:23:48.600Z,28.588867
2018-07-03T21:24:05.486Z,28.393555
2018-07-03T21:24:22.260Z,28.393555
2018-07-03T21:24:39.069Z,28.491211
2018-07-03T21:24:55.851Z,28.393555
2018-07-03T21:25:12.679Z,28.393555
2018-07-03T21:25:29.546Z,28.283691
2018-07-03T21:30:04.179Z,32.147217
2018-07-03T21:30:21.017Z,35.321045
2018-07-03T21:30:37.867Z,35.144043
2018-07-03T21:30:55.101Z,57.849121
2018-07-03T21:31:11.979Z,39.294434
2018-07-03T21:31:28.802Z,45.843506
2018-07-03T21:31:45.790Z,39.190674
2018-07-03T21:32:02.535Z,34.033203
2018-07-03T21:32:19.335Z,33.654785
2018-07-03T21:32:36.162Z,33.251953
2018-07-03T21:32:53.018Z,33.36792
2018-07-03T21:33:09.845Z,33.288574
2018-07-03T21:33:26.668Z,33.288574
2018-07-03T21:33:43.485Z,33.288574
2018-07-03T21:34:00.312Z,33.300781
2018-07-03T21:34:17.116Z,33.404541
2018-07-03T21:34:33.897Z,33.502197
2018-07-03T21:34:50.717Z,33.618164
2018-07-03T21:35:07.570Z,33.618164
2018-07-03T21:35:24.437Z,33.71582
2018-07-03T21:35:41.830Z,33.71582
2018-07-03T21:35:58.637Z,33.917236
2018-07-03T21:36:15.470Z,33.929443
2018-07-03T21:36:32.255Z,33.929443
2018-07-03T21:36:49.002Z,34.033203
2018-07-03T21:37:05.816Z,34.130859
2018-07-03T21:37:22.586Z,34.130859
2018-07-03T21:37:39.633Z,34.130859
2018-07-03T21:37:56.407Z,34.228516
2018-07-03T21:38:13.177Z,34.228516
2018-07-03T21:38:29.944Z,34.228516
2018-07-03T21:38:46.754Z,34.228516
2018-07-03T21:39:03.505Z,34.332275
2018-07-03T21:39:20.225Z,34.332275
2018-07-03T21:39:37.009Z,34.332275
2018-07-03T21:39:53.781Z,34.344482
2018-07-03T21:40:10.601Z,34.429932
2018-07-03T21:40:27.379Z,34.448242
2018-07-03T21:40:44.125Z,34.448242
2018-07-03T21:41:00.891Z,34.448242
2018-07-03T21:41:17.665Z,34.448242
2018-07-03T21:41:35.051Z,34.448242
2018-07-03T21:41:51.196Z,34.448242
2018-07-03T21:42:07.953Z,34.448242
2018-07-03T21:42:24.745Z,34.448242
2018-07-03T21:42:41.507Z,34.545898
2018-07-03T21:42:58.733Z,34.545898
2018-07-03T21:43:15.606Z,34.545898
2018-07-03T21:43:32.377Z,34.545898
2018-07-03T21:43:49.244Z,34.545898
2018-07-03T21:44:06.016Z,34.545898
2018-07-03T21:44:23.219Z,34.545898
2018-07-03T21:44:39.965Z,34.545898
2018-07-03T21:44:56.744Z,34.545898
2018-07-03T21:45:13.556Z,34.545898
2018-07-03T21:45:30.368Z,34.643555
2018-07-03T21:45:47.186Z,34.643555
2018-07-03T21:46:03.986Z,34.643555
2018-07-03T21:46:20.728Z,34.643555
2018-07-03T21:46:37.479Z,34.643555
2018-07-03T21:46:54.715Z,34.643555
2018-07-03T21:47:11.514Z,34.747314
2018-07-03T21:47:28.921Z,34.747314
2018-07-03T21:47:46.365Z,34.747314
2018-07-03T21:48:04.154Z,34.747314
2018-07-03T21:48:20.901Z,34.747314
2018-07-03T21:48:38.733Z,34.747314
2018-07-03T21:48:55.579Z,34.747314
2018-07-03T21:49:12.417Z,34.747314
2018-07-03T21:49:29.216Z,34.747314
2018-07-03T21:49:46.999Z,34.844971
2018-07-03T21:50:04.198Z,34.844971
2018-07-03T21:50:21.021Z,34.844971
2018-07-03T21:50:37.867Z,34.844971
2018-07-03T21:50:54.724Z,34.844971
2018-07-03T21:51:11.515Z,34.844971
2018-07-03T21:51:29.307Z,34.844971
2018-07-03T21:51:46.129Z,34.942627
2018-07-03T21:52:02.909Z,34.942627
2018-07-03T21:52:19.716Z,34.942627
2018-07-03T21:52:36.461Z,34.942627
2018-07-03T21:52:53.698Z,34.942627
2018-07-03T21:53:10.467Z,34.942627
2018-07-03T21:53:27.284Z,34.942627
2018-07-03T21:53:44.113Z,34.942627
2018-07-03T21:54:00.918Z,34.942627
2018-07-03T21:54:17.750Z,34.942627
2018-07-03T21:54:34.581Z,34.942627
2018-07-03T21:54:51.412Z,34.942627
2018-07-03T21:55:08.219Z,34.942627
2018-07-03T21:55:25.059Z,34.942627
2018-07-03T21:55:41.853Z,35.046387
2018-07-03T21:55:58.696Z,35.046387
2018-07-03T21:56:15.538Z,35.046387
2018-07-03T21:56:32.372Z,35.046387
2018-07-03T21:56:49.184Z,35.144043
2018-07-03T21:57:06.015Z,35.144043
2018-07-03T21:57:22.834Z,35.144043
2018-07-03T21:57:39.656Z,35.144043
2018-07-03T21:57:56.898Z,35.144043
2018-07-03T21:58:13.725Z,35.144043
2018-07-03T21:58:30.543Z,35.144043
2018-07-03T21:58:47.372Z,35.241699
2018-07-03T21:59:04.539Z,35.144043
2018-07-03T21:59:21.827Z,35.241699
2018-07-03T21:59:38.642Z,35.144043
2018-07-03T21:59:55.868Z,35.144043
2018-07-03T22:00:12.721Z,35.241699
2018-07-03T22:00:29.632Z,35.241699
2018-07-03T22:00:46.779Z,35.241699
2018-07-03T22:01:03.994Z,35.241699
2018-07-03T22:01:21.819Z,35.241699
2018-07-03T22:01:38.638Z,35.339355
2018-07-03T22:01:55.470Z,35.339355
2018-07-03T22:02:12.276Z,35.339355
2018-07-03T22:02:29.049Z,35.339355
2018-07-03T22:02:45.823Z,35.339355
2018-07-03T22:03:02.581Z,35.339355
2018-07-03T22:03:19.348Z,35.339355
2018-07-03T22:03:36.069Z,35.339355
2018-07-03T22:03:52.866Z,35.339355
2018-07-03T22:04:09.669Z,35.443115
2018-07-03T22:04:26.404Z,35.443115
2018-07-03T22:04:43.219Z,35.339355
2018-07-03T22:05:00.043Z,35.443115
2018-07-03T22:05:16.870Z,35.443115
2018-07-03T22:05:33.684Z,35.443115
2018-07-03T22:05:50.860Z,35.443115
2018-07-03T22:06:07.792Z,35.443115
2018-07-03T22:06:25.496Z,35.443115
2018-07-03T22:06:43.266Z,35.540771
2018-07-03T22:07:01.984Z,35.540771
2018-07-03T22:07:23.993Z,35.540771
2018-07-03T22:07:41.317Z,35.540771
2018-07-03T22:07:58.514Z,35.540771
2018-07-03T22:08:15.313Z,35.540771
2018-07-03T22:08:32.140Z,35.638428
2018-07-03T22:08:48.963Z,35.638428
2018-07-03T22:09:05.784Z,35.540771
2018-07-03T22:09:22.613Z,35.540771
2018-07-03T22:09:39.698Z,35.540771
2018-07-03T22:09:56.517Z,35.540771
2018-07-03T22:10:13.342Z,35.443115
2018-07-03T22:10:30.176Z,35.443115
2018-07-03T22:10:46.999Z,35.540771
2018-07-03T22:11:03.789Z,35.540771
2018-07-03T22:11:20.545Z,35.638428
2018-07-03T22:11:37.302Z,35.638428
2018-07-03T22:11:54.076Z,35.540771
2018-07-03T22:12:10.863Z,35.638428
2018-07-03T22:12:27.685Z,35.742188
2018-07-03T22:12:44.524Z,35.742188
2018-07-03T22:13:01.354Z,35.742188
2018-07-03T22:13:18.167Z,35.742188
2018-07-03T22:13:35.002Z,40.222168
2018-07-03T22:13:51.800Z,38.330078
2018-07-03T22:14:08.574Z,37.335205
2018-07-03T22:14:25.729Z,36.932373
2018-07-03T22:14:42.481Z,36.437988
2018-07-03T22:15:00.229Z,36.236572
2018-07-03T22:15:17.050Z,36.138916
2018-07-03T22:15:33.846Z,36.04126
2018-07-03T22:15:50.647Z,35.839844
2018-07-03T22:16:07.446Z,35.742188
2018-07-03T22:16:24.578Z,35.742188
2018-07-03T22:16:41.824Z,35.638428
2018-07-03T22:16:58.988Z,35.742188
2018-07-03T22:17:15.912Z,35.742188
2018-07-03T22:17:32.659Z,35.742188
2018-07-03T22:17:49.454Z,35.839844
2018-07-03T22:18:07.150Z,35.9375
2018-07-03T22:18:23.898Z,35.9375
2018-07-03T22:18:40.655Z,36.04126
2018-07-03T22:18:58.055Z,35.9375
2018-07-03T22:19:15.714Z,36.04126
2018-07-03T22:19:32.727Z,36.138916
2018-07-03T22:19:49.565Z,36.138916
2018-07-03T22:20:06.430Z,36.138916
2018-07-03T22:20:23.233Z,36.138916
2018-07-03T22:20:39.981Z,36.04126
2018-07-03T22:20:57.148Z,36.138916
2018-07-03T22:21:14.358Z,36.236572
2018-07-03T22:21:31.119Z,36.340332
2018-07-03T22:21:48.190Z,36.236572
2018-07-03T22:22:05.021Z,36.437988
2018-07-03T22:22:21.846Z,36.437988
2018-07-03T22:22:38.669Z,36.535645
2018-07-03T22:22:55.504Z,36.437988
2018-07-03T22:23:12.332Z,36.535645
2018-07-03T22:23:29.151Z,36.639404
2018-07-03T22:23:45.992Z,36.639404
2018-07-03T22:24:02.797Z,36.639404
2018-07-03T22:24:19.603Z,36.639404
2018-07-03T22:24:36.398Z,36.737061
2018-07-03T22:24:53.143Z,36.834717
2018-07-03T22:25:09.858Z,36.834717
2018-07-03T22:25:26.653Z,36.834717
2018-07-03T22:25:43.451Z,36.932373
2018-07-03T22:26:00.246Z,37.036133
2018-07-03T22:26:17.013Z,37.133789
2018-07-03T22:26:33.808Z,37.335205
2018-07-03T22:26:50.618Z,37.335205
2018-07-03T22:27:07.479Z,37.432861
2018-07-03T22:27:24.203Z,37.530518
2018-07-03T22:27:41.363Z,37.530518
2018-07-03T22:27:58.135Z,37.634277
2018-07-03T22:28:14.894Z,37.530518
2018-07-03T22:28:31.647Z,37.530518
2018-07-03T22:28:48.461Z,37.530518
2018-07-03T22:29:05.229Z,37.530518
2018-07-03T22:29:21.979Z,37.634277
2018-07-03T22:29:38.697Z,37.530518
2018-07-03T22:29:55.473Z,39.923096
2018-07-03T22:30:19.662Z,41.19873
2018-07-03T22:30:37.843Z,38.50708
2018-07-03T22:30:54.641Z,37.915039
2018-07-03T22:31:11.607Z,37.615967
2018-07-03T22:31:28.441Z,37.811279
2018-07-03T22:31:45.301Z,37.811279
2018-07-03T22:32:09.873Z,38.110352
2018-07-03T22:32:26.816Z,38.409424
2018-07-03T22:32:43.657Z,38.311768
2018-07-03T22:33:17.972Z,38.391113
2018-07-03T22:33:34.738Z,38.48877
2018-07-03T22:33:51.531Z,38.50708
2018-07-03T22:34:09.318Z,38.61084
2018-07-03T22:34:26.141Z,38.61084
2018-07-03T22:34:42.965Z,38.708496
2018-07-03T22:34:59.794Z,38.806152
2018-07-03T22:35:16.662Z,38.806152
2018-07-03T22:35:33.460Z,38.909912
2018-07-03T22:35:51.183Z,38.909912
2018-07-03T22:36:08.000Z,39.007568
2018-07-03T22:36:25.304Z,39.025879
2018-07-03T22:36:42.116Z,39.025879
2018-07-03T22:36:58.956Z,39.025879
2018-07-03T22:37:15.798Z,39.025879
2018-07-03T22:37:32.606Z,39.025879
2018-07-03T22:37:49.383Z,39.025879
2018-07-03T22:38:06.153Z,38.928223
2018-07-03T22:38:22.897Z,38.928223
2018-07-03T22:38:39.719Z,38.928223
2018-07-03T22:38:56.448Z,38.928223
2018-07-03T22:39:13.256Z,38.824463
2018-07-03T22:39:30.095Z,38.824463
2018-07-03T22:39:46.974Z,38.928223
2018-07-03T22:40:03.726Z,39.025879
2018-07-03T22:40:20.574Z,39.025879
2018-07-03T22:40:37.425Z,39.025879
2018-07-03T22:40:54.285Z,38.928223
2018-07-03T22:41:11.144Z,39.025879
2018-07-03T22:41:27.994Z,39.025879
2018-07-03T22:41:44.853Z,39.025879
2018-07-03T22:42:01.703Z,39.123535
2018-07-03T22:42:18.550Z,39.123535
2018-07-03T22:42:35.434Z,39.123535
2018-07-03T22:42:52.315Z,39.123535
2018-07-03T22:43:09.152Z,39.123535
2018-07-03T22:43:25.991Z,39.123535
2018-07-03T22:43:42.833Z,39.227295
2018-07-03T22:43:59.671Z,39.227295
2018-07-03T22:44:16.490Z,39.227295
2018-07-03T22:44:33.316Z,39.227295
2018-07-03T22:44:50.136Z,39.123535
2018-07-03T22:45:06.951Z,39.123535
2018-07-03T22:45:23.786Z,39.123535
2018-07-03T22:45:40.626Z,39.123535
2018-07-03T22:45:57.888Z,39.227295
2018-07-03T22:46:14.743Z,39.025879
2018-07-03T22:46:31.573Z,38.824463
2018-07-03T22:46:48.382Z,39.025879
2018-07-03T22:47:05.369Z,39.227295
2018-07-03T22:47:22.183Z,39.227295
2018-07-03T22:47:39.303Z,39.324951
2018-07-03T22:47:56.142Z,39.422607
2018-07-03T22:48:12.943Z,39.422607
2018-07-03T22:48:29.990Z,39.422607
2018-07-03T22:48:46.805Z,39.422607
2018-07-03T22:49:03.619Z,39.324951
2018-07-03T22:49:20.442Z,39.123535
2018-07-03T22:49:37.258Z,39.123535
2018-07-03T22:49:54.106Z,39.025879
2018-07-03T22:50:10.934Z,39.025879
2018-07-03T22:50:27.763Z,39.123535
2018-07-03T22:50:44.608Z,39.324951
2018-07-03T22:51:01.445Z,39.227295
2018-07-03T22:51:18.294Z,39.324951
2018-07-03T22:51:35.104Z,39.227295
2018-07-03T22:51:51.931Z,39.123535
2018-07-03T22:52:09.673Z,39.123535
2018-07-03T22:52:26.759Z,39.227295
2018-07-03T22:52:45.438Z,39.123535
2018-07-03T22:53:03.831Z,39.123535
2018-07-03T22:53:21.452Z,39.227295
2018-07-03T22:53:39.437Z,39.123535
2018-07-03T22:53:57.722Z,39.123535
2018-07-03T22:54:15.941Z,39.025879
2018-07-03T22:54:32.755Z,38.928223
2018-07-03T22:54:49.590Z,39.123535
2018-07-03T22:55:06.497Z,39.123535
2018-07-03T22:55:23.939Z,39.227295
2018-07-03T22:55:41.757Z,39.123535
2018-07-03T22:55:58.544Z,39.324951
2018-07-03T22:56:15.336Z,39.324951
2018-07-03T22:56:32.123Z,39.422607
2018-07-03T22:56:48.949Z,39.324951
2018-07-03T22:57:05.777Z,39.324951
2018-07-03T22:57:22.589Z,39.227295
2018-07-03T22:57:39.417Z,39.422607
2018-07-03T22:57:56.191Z,39.324951
2018-07-03T22:58:12.940Z,39.123535
2018-07-03T22:58:29.775Z,39.123535
2018-07-03T22:58:47.420Z,39.544678
2018-07-03T22:59:04.177Z,39.84375
2018-07-03T22:59:20.944Z,39.941406
2018-07-03T22:59:37.687Z,39.941406
2018-07-03T22:59:54.434Z,40.039062
2018-07-03T23:00:11.164Z,40.142822
2018-07-03T23:00:27.914Z,40.142822
2018-07-03T23:00:44.664Z,40.240479
2018-07-03T23:01:01.402Z,40.240479
2018-07-03T23:01:18.125Z,40.142822
2018-07-03T23:01:34.911Z,40.142822
2018-07-03T23:01:51.657Z,40.142822
2018-07-03T23:02:08.402Z,40.142822
2018-07-03T23:02:25.151Z,40.142822
2018-07-03T23:02:41.885Z,40.142822
2018-07-03T23:02:58.614Z,40.240479
2018-07-03T23:03:15.378Z,40.142822
2018-07-03T23:03:32.121Z,40.142822
2018-07-03T23:03:48.883Z,40.142822
2018-07-03T23:04:06.608Z,40.142822
2018-07-03T23:04:23.333Z,40.142822
2018-07-03T23:04:40.083Z,40.142822
2018-07-03T23:04:56.842Z,40.240479
2018-07-03T23:05:13.616Z,40.142822
2018-07-03T23:05:30.355Z,40.142822
2018-07-03T23:05:47.218Z,40.142822
2018-07-03T23:06:03.964Z,40.142822
2018-07-03T23:06:20.717Z,40.142822
2018-07-03T23:06:37.484Z,40.142822
2018-07-03T23:06:54.229Z,40.142822
2018-07-03T23:07:10.965Z,40.039062
2018-07-03T23:07:27.693Z,40.039062
2018-07-03T23:07:44.477Z,40.039062
2018-07-03T23:08:01.180Z,40.039062
2018-07-03T23:08:17.935Z,40.142822
2018-07-03T23:08:34.701Z,40.142822
2018-07-03T23:08:51.448Z,40.039062
2018-07-03T23:09:08.184Z,40.142822
2018-07-03T23:09:24.937Z,40.039062
2018-07-03T23:09:41.696Z,40.142822
2018-07-03T23:09:58.441Z,40.142822
2018-07-03T23:10:15.211Z,40.142822
2018-07-03T23:10:31.991Z,40.142822
2018-07-03T23:10:48.754Z,40.039062
2018-07-03T23:11:05.526Z,40.039062
2018-07-03T23:11:22.256Z,40.039062
2018-07-03T23:11:39.006Z,40.039062
2018-07-03T23:11:55.727Z,40.142822
2018-07-03T23:12:12.503Z,40.142822
2018-07-03T23:12:29.276Z,40.142822
2018-07-03T23:12:46.056Z,40.142822
2018-07-03T23:13:02.835Z,40.039062
2018-07-03T23:13:19.606Z,40.039062
2018-07-03T23:13:36.403Z,40.039062
2018-07-03T23:13:53.198Z,40.039062
2018-07-03T23:14:09.991Z,40.039062
2018-07-03T23:14:26.761Z,40.039062
2018-07-03T23:14:43.550Z,40.039062
2018-07-03T23:15:00.322Z,40.142822
2018-07-03T23:15:17.073Z,40.039062
2018-07-03T23:15:33.847Z,40.142822
2018-07-03T23:15:50.589Z,40.142822
2018-07-03T23:16:07.340Z,40.039062
2018-07-03T23:16:24.084Z,40.039062
2018-07-03T23:16:40.819Z,40.039062
2018-07-03T23:16:57.568Z,40.039062
2018-07-03T23:17:14.356Z,40.039062
2018-07-03T23:17:31.082Z,40.039062
2018-07-03T23:17:47.850Z,40.039062
2018-07-03T23:18:04.587Z,40.039062
2018-07-03T23:18:21.334Z,39.941406
2018-07-03T23:18:38.093Z,40.039062
2018-07-03T23:18:54.834Z,40.039062
2018-07-03T23:19:11.577Z,40.039062
2018-07-03T23:19:28.330Z,40.039062
2018-07-03T23:19:45.087Z,40.039062
2018-07-03T23:20:01.838Z,39.941406
2018-07-03T23:20:18.575Z,40.039062
2018-07-03T23:20:35.306Z,40.057373
2018-07-03T23:20:52.043Z,40.057373
2018-07-03T23:21:08.780Z,40.039062
2018-07-03T23:21:25.525Z,40.161133
2018-07-03T23:21:42.272Z,40.039062
2018-07-03T23:21:59.017Z,40.057373
2018-07-03T23:22:15.757Z,40.057373
2018-07-03T23:22:32.494Z,40.057373
2018-07-03T23:22:49.246Z,40.057373
2018-07-03T23:23:05.991Z,40.057373
2018-07-03T23:23:22.741Z,40.057373
2018-07-03T23:23:39.484Z,40.057373
2018-07-03T23:23:56.232Z,40.057373
2018-07-03T23:24:12.965Z,40.057373
2018-07-03T23:24:29.697Z,40.057373
2018-07-03T23:24:46.452Z,40.057373
2018-07-03T23:25:03.189Z,40.057373
2018-07-03T23:25:19.926Z,40.057373
2018-07-03T23:25:36.675Z,40.057373
2018-07-03T23:25:53.439Z,40.057373
2018-07-03T23:26:10.181Z,40.161133
2018-07-03T23:26:26.938Z,40.161133
2018-07-03T23:26:43.666Z,40.057373
2018-07-03T23:27:00.414Z,40.057373
2018-07-03T23:27:17.163Z,40.057373
2018-07-03T23:27:33.933Z,40.057373
2018-07-03T23:27:50.661Z,40.057373
2018-07-03T23:28:07.398Z,40.057373
2018-07-03T23:28:24.140Z,39.959717
2018-07-03T23:28:40.884Z,39.959717
2018-07-03T23:28:57.625Z,39.959717
2018-07-03T23:29:14.365Z,39.959717
2018-07-03T23:29:31.110Z,39.959717
2018-07-03T23:29:47.858Z,39.959717
2018-07-03T23:30:04.600Z,39.959717
2018-07-03T23:30:21.352Z,40.057373
2018-07-03T23:30:38.103Z,40.057373
2018-07-03T23:30:54.887Z,40.057373
2018-07-03T23:31:12.629Z,40.057373
2018-07-03T23:31:29.421Z,40.057373
2018-07-03T23:31:46.180Z,40.057373
2018-07-03T23:32:02.950Z,40.057373
2018-07-03T23:32:19.760Z,40.057373
2018-07-03T23:32:36.535Z,40.057373
2018-07-03T23:32:53.323Z,40.057373
2018-07-03T23:33:10.070Z,40.057373
2018-07-03T23:33:27.807Z,40.057373
2018-07-03T23:33:44.545Z,40.057373
2018-07-03T23:34:01.303Z,40.057373
2018-07-03T23:34:18.047Z,40.057373
2018-07-03T23:34:34.797Z,40.057373
2018-07-03T23:34:51.533Z,40.057373
2018-07-03T23:35:08.258Z,40.161133
2018-07-03T23:35:25.007Z,40.057373
2018-07-03T23:35:41.766Z,40.057373
2018-07-03T23:35:58.519Z,40.057373
2018-07-03T23:36:15.270Z,40.057373
2018-07-03T23:36:32.013Z,40.057373
2018-07-03T23:36:48.717Z,40.057373
2018-07-03T23:37:05.455Z,40.057373
2018-07-03T23:37:22.190Z,40.057373
2018-07-03T23:37:38.947Z,40.057373
2018-07-03T23:37:55.687Z,40.057373
2018-07-03T23:38:12.440Z,40.057373
2018-07-03T23:38:29.166Z,40.057373
2018-07-03T23:38:45.903Z,40.057373
2018-07-03T23:39:02.652Z,40.057373
2018-07-03T23:39:19.393Z,40.057373
2018-07-03T23:39:36.143Z,40.057373
2018-07-03T23:39:52.892Z,40.057373
2018-07-03T23:40:09.628Z,40.057373
2018-07-03T23:40:26.366Z,40.057373
2018-07-03T23:40:43.151Z,40.057373
2018-07-03T23:40:59.876Z,40.057373
2018-07-03T23:41:16.609Z,40.057373
2018-07-03T23:41:33.354Z,40.057373
2018-07-03T23:41:50.094Z,40.057373
2018-07-03T23:42:06.848Z,39.959717
2018-07-03T23:42:23.580Z,39.959717
2018-07-03T23:42:40.319Z,39.959717
2018-07-03T23:42:57.066Z,39.959717
2018-07-03T23:43:13.822Z,39.959717
2018-07-03T23:43:31.575Z,39.959717
2018-07-03T23:43:48.338Z,39.959717
2018-07-03T23:44:05.081Z,40.057373
2018-07-03T23:44:21.823Z,40.057373
2018-07-03T23:44:38.562Z,40.057373
2018-07-03T23:44:55.317Z,40.057373
2018-07-03T23:45:12.061Z,39.959717
2018-07-03T23:45:28.802Z,39.959717
2018-07-03T23:45:45.556Z,39.959717
2018-07-03T23:46:02.333Z,39.959717
2018-07-03T23:46:19.077Z,39.959717
2018-07-03T23:46:35.826Z,39.959717
2018-07-03T23:46:52.563Z,39.862061
2018-07-03T23:47:09.305Z,39.862061
2018-07-03T23:47:26.032Z,39.862061
2018-07-03T23:47:42.773Z,39.862061
2018-07-03T23:47:59.527Z,39.862061
2018-07-03T23:48:16.276Z,39.862061
2018-07-03T23:48:33.014Z,39.862061
2018-07-03T23:48:49.768Z,39.862061
2018-07-03T23:49:06.486Z,39.862061
2018-07-03T23:49:23.240Z,39.862061
2018-07-03T23:49:40.006Z,39.959717
2018-07-03T23:49:56.739Z,39.959717
2018-07-03T23:50:13.485Z,39.959717
2018-07-03T23:50:30.234Z,39.959717
2018-07-03T23:50:46.983Z,39.959717
2018-07-03T23:51:03.748Z,39.959717
2018-07-03T23:51:20.493Z,39.959717
2018-07-03T23:51:37.237Z,39.862061
2018-07-03T23:51:53.985Z,39.862061
2018-07-03T23:52:10.734Z,39.959717
2018-07-03T23:52:27.480Z,39.959717
2018-07-03T23:52:44.229Z,39.959717
2018-07-03T23:53:00.989Z,39.959717
2018-07-03T23:53:17.718Z,39.959717
2018-07-03T23:53:34.466Z,39.959717
2018-07-03T23:53:51.229Z,39.959717
2018-07-03T23:54:07.952Z,39.959717
2018-07-03T23:54:24.699Z,39.959717
2018-07-03T23:54:41.445Z,39.959717
2018-07-03T23:54:59.187Z,39.959717
2018-07-03T23:55:15.958Z,39.959717
2018-07-03T23:55:32.707Z,39.959717
2018-07-03T23:55:49.442Z,39.959717
2018-07-03T23:56:06.219Z,39.959717
2018-07-03T23:56:22.979Z,40.057373
2018-07-03T23:56:39.718Z,40.057373
2018-07-03T23:56:56.442Z,39.959717
2018-07-03T23:57:13.212Z,39.959717
2018-07-03T23:57:30.020Z,40.057373
2018-07-03T23:57:46.795Z,40.057373
2018-07-03T23:58:03.572Z,39.959717
2018-07-03T23:58:20.353Z,39.959717
2018-07-03T23:58:37.131Z,39.959717
2018-07-03T23:58:53.943Z,39.959717
2018-07-03T23:59:10.728Z,39.959717
2018-07-03T23:59:27.507Z,39.959717
2018-07-03T23:59:44.298Z,39.959717
